FLLK1: Fall River Lake

Data processed at Sun Dec 16 2018 23:32


All information presented herein is the property of the government of the United States of America and may be revised or deleted at any time without prior notice.
Dissemination of this information without the expressed written consent of the Public Affairs Office, Tulsa District U.S. Army Corps of Engineers is strictly prohibited.
These data are gathered electronically and, as presented, have not undergone any form of quality control. These data are not guaranteed to be valid or correct.
Go to home page.
Go to station list.
Go to home page.

Upstream stations:

Downstream station:
Previous Day
Next Day
Current Day
    
SHEF ID:       FLLK1     Fall River Lake
STATION TYPE:  RESERVOIR
Normal Pool:  Bottom =   940.00, Top =   948.50

               PRECIP ELEVATION   STORAGE    INFLOW   RELEASE  AIR-TEMP  WIND-DIRWIND-SPEED REL-HUMID SOLAR-RAD   VOLTAGE  BAT-LOAD
                   in        ft     ac-ft       cfs       cfs         F       deg       mph         %      W/m2      volt      volt
              Ccp-Rev   Ccp-Rev   Ccp-Rev  Regi-Rev  Regi-Rev   Ccp-Rev   Ccp-Rev   Ccp-Rev   Ccp-Rev   Ccp-Rev   Ccp-Rev   Ccp-Rev
(US/Central)
12/16 00:00      0.00    949.16     22106       121       173     33.51      3.30      2.10     72.57      0.00     13.47     13.29
12/16 01:00      0.00    949.16     22106       103       174     32.79     17.70      2.60     67.67      0.00     13.43     13.29
12/16 02:00      0.00    949.16     22106       112       173     32.38     27.00      1.10     69.38      0.00     13.47     13.29
12/16 03:00      0.00    949.17     22127       121       173     29.95    155.10      1.40     80.37      0.00     13.44     13.29
12/16 04:00      0.00    949.16     22106       173       173     31.33     14.80      1.90     76.54      0.00     13.46     13.29
12/16 05:00      0.00    949.15     22084       147       173     32.02    264.70      3.00     75.67      0.00     13.44     13.29
12/16 06:00      0.00    949.16     22106       138       173     31.55     43.20      4.00     70.85      0.00     13.46     13.29
12/16 07:00      0.00    949.17     22127       209       173     31.71    237.90      3.60     65.53      0.00     13.43     13.29
12/16 08:00      0.00    949.15     22084       200       173     30.34    218.10      2.90     63.91      0.60     13.59     13.37
12/16 09:00      0.00    949.16     22106       120       173     31.01     20.20      4.50     74.89    135.30     14.72     13.37
12/16 10:00      0.00    949.16     22106       147       173     33.76     14.90      3.40     67.62    307.60     14.17     14.64
12/16 11:00      0.00    949.15     22084       173       173     40.23     13.80      2.70     52.99    422.40     14.00     14.08
12/16 12:00      0.00    949.15     22084       120       173     43.90     16.30      2.20     41.30    489.90     13.85     13.92
12/16 13:00      0.00    949.15     22084       147       173     51.69      0.80      2.00     28.50    498.60     13.70     13.76
12/16 14:00      0.00    949.15     22084       226       173     56.70      1.00      2.20     18.88    447.10     13.61     13.29
12/16 15:00      0.00    949.15     22084       200       173     58.60     23.30      0.70     17.08    340.20     13.56     13.53
12/16 16:00      0.00    949.16     22106       173       173     58.30     11.10      2.20     19.78    196.40     13.63     13.44
12/16 17:00      0.00    949.15     22084       173       173     51.28     27.50      5.10     38.79     39.10     13.54     13.53
12/16 18:00      0.00    949.15     22084       173       173     47.95     18.90      4.50     48.46      0.00     13.45     13.37
12/16 19:00      0.00    949.15     22084       173       173     45.55     10.50      3.20     50.75      0.00     13.46     13.29
12/16 20:00      0.00    949.15     22084       173       173     43.07     19.30      3.70     60.34      0.00     13.41     13.29
12/16 21:00      0.00    949.16     22106       173       173     42.28      3.10      4.70     58.30      0.00     13.46     13.29
12/16 22:00      0.00    949.15     22084       147       173     39.67     18.90      4.70     70.71      0.00     13.42     13.29
12/16 23:00      0.00    949.15     22084       120       173     37.49     19.50      4.90     78.29      0.00     13.46     13.29